sensor_id;sensor_type;location;lat;lon;timestamp;P1;durP1;ratioP1;P2;durP2;ratioP2
63114;SDS011;49208;50.874;6.466;2022-12-19T12:43:29;13.18;;;6.43;;
63114;SDS011;49208;50.874;6.466;2022-12-19T12:46:05;14.23;;;6.50;;
63114;SDS011;49208;50.874;6.466;2022-12-19T12:51:06;20.35;;;8.75;;
63114;SDS011;49208;50.874;6.466;2022-12-19T12:53:34;15.45;;;7.55;;
63114;SDS011;49208;50.874;6.466;2022-12-19T12:56:03;13.80;;;6.75;;
63114;SDS011;49208;50.874;6.466;2022-12-19T13:03:53;7.00;;;3.22;;
63114;SDS011;49208;50.874;6.466;2022-12-19T13:06:32;7.13;;;3.20;;
63114;SDS011;49208;50.874;6.466;2022-12-19T13:09:18;7.22;;;3.30;;
63114;SDS011;49208;50.874;6.466;2022-12-19T13:11:49;6.63;;;2.78;;
63114;SDS011;49208;50.874;6.466;2022-12-19T13:14:52;9.88;;;3.97;;
63114;SDS011;49208;50.874;6.466;2022-12-19T13:22:39;6.72;;;2.90;;
63114;SDS011;49208;50.874;6.466;2022-12-19T13:26:08;7.80;;;3.00;;
63114;SDS011;49208;50.874;6.466;2022-12-19T13:30:26;5.30;;;2.58;;
63114;SDS011;49208;50.874;6.466;2022-12-19T13:43:00;11.20;;;7.18;;
63114;SDS011;49208;50.874;6.466;2022-12-19T13:45:49;18.92;;;8.95;;
63114;SDS011;49208;50.874;6.466;2022-12-19T13:51:07;11.25;;;5.53;;
63114;SDS011;49208;50.874;6.466;2022-12-19T13:53:34;11.25;;;5.90;;
63114;SDS011;49208;50.874;6.466;2022-12-19T13:56:18;10.75;;;5.43;;
63114;SDS011;49208;50.874;6.466;2022-12-19T14:01:29;12.65;;;5.30;;
63114;SDS011;49208;50.874;6.466;2022-12-19T14:03:58;10.77;;;6.20;;
63114;SDS011;49208;50.874;6.466;2022-12-19T14:06:41;13.88;;;6.57;;
63114;SDS011;49208;50.874;6.466;2022-12-19T14:09:53;11.18;;;6.60;;
63114;SDS011;49208;50.874;6.466;2022-12-19T14:11:59;11.80;;;5.78;;
63114;SDS011;49208;50.874;6.466;2022-12-19T14:14:28;11.25;;;6.30;;
63114;SDS011;49208;50.874;6.466;2022-12-19T14:17:14;10.75;;;5.82;;
63114;SDS011;49208;50.874;6.466;2022-12-19T14:19:45;10.27;;;5.45;;
63114;SDS011;49208;50.874;6.466;2022-12-19T14:24:53;11.35;;;5.47;;
63114;SDS011;49208;50.874;6.466;2022-12-19T14:29:51;9.32;;;5.25;;
63114;SDS011;49208;50.874;6.466;2022-12-19T14:32:18;10.75;;;5.10;;
63114;SDS011;49208;50.874;6.466;2022-12-19T14:34:45;8.20;;;4.88;;
63114;SDS011;49208;50.874;6.466;2022-12-19T14:37:26;16.17;;;7.10;;
63114;SDS011;49208;50.874;6.466;2022-12-19T14:39:59;14.20;;;6.47;;
63114;SDS011;49208;50.874;6.466;2022-12-19T14:42:29;17.08;;;7.07;;
63114;SDS011;49208;50.874;6.466;2022-12-19T14:45:32;20.75;;;7.97;;
63114;SDS011;49208;50.874;6.466;2022-12-19T14:48:26;14.02;;;7.47;;
63114;SDS011;49208;50.874;6.466;2022-12-19T14:51:11;11.68;;;6.22;;
63114;SDS011;49208;50.874;6.466;2022-12-19T14:53:39;9.80;;;6.30;;
63114;SDS011;49208;50.874;6.466;2022-12-19T14:56:32;12.30;;;5.63;;
63114;SDS011;49208;50.874;6.466;2022-12-19T14:59:16;10.70;;;5.75;;
63114;SDS011;49208;50.874;6.466;2022-12-19T15:04:31;16.13;;;5.40;;
63114;SDS011;49208;50.874;6.466;2022-12-19T15:07:00;11.25;;;5.82;;
63114;SDS011;49208;50.874;6.466;2022-12-19T15:09:28;11.20;;;6.47;;
63114;SDS011;49208;50.874;6.466;2022-12-19T15:12:02;10.07;;;5.30;;
63114;SDS011;49208;50.874;6.466;2022-12-19T15:14:59;12.23;;;5.85;;
63114;SDS011;49208;50.874;6.466;2022-12-19T15:17:27;8.82;;;4.95;;
63114;SDS011;49208;50.874;6.466;2022-12-19T15:19:53;10.48;;;4.65;;
63114;SDS011;49208;50.874;6.466;2022-12-19T15:22:19;9.85;;;5.10;;
63114;SDS011;49208;50.874;6.466;2022-12-19T15:24:44;12.35;;;6.05;;
63114;SDS011;49208;50.874;6.466;2022-12-19T15:27:11;12.32;;;6.10;;
63114;SDS011;49208;50.874;6.466;2022-12-19T15:29:39;13.10;;;6.32;;
63114;SDS011;49208;50.874;6.466;2022-12-19T15:32:08;13.57;;;7.07;;
63114;SDS011;49208;50.874;6.466;2022-12-19T15:34:37;18.13;;;5.80;;
63114;SDS011;49208;50.874;6.466;2022-12-19T15:37:06;9.40;;;5.55;;
63114;SDS011;49208;50.874;6.466;2022-12-19T15:39:36;13.65;;;5.60;;
63114;SDS011;49208;50.874;6.466;2022-12-19T15:42:02;12.13;;;6.15;;
63114;SDS011;49208;50.874;6.466;2022-12-19T15:44:34;10.65;;;5.57;;
63114;SDS011;49208;50.874;6.466;2022-12-19T15:47:06;8.85;;;4.90;;
63114;SDS011;49208;50.874;6.466;2022-12-19T15:52:08;11.63;;;5.35;;
63114;SDS011;49208;50.874;6.466;2022-12-19T15:54:39;12.23;;;5.43;;
63114;SDS011;49208;50.874;6.466;2022-12-19T15:57:04;13.73;;;5.32;;
63114;SDS011;49208;50.874;6.466;2022-12-19T15:59:31;10.32;;;5.20;;
63114;SDS011;49208;50.874;6.466;2022-12-19T16:01:59;11.50;;;6.32;;
63114;SDS011;49208;50.874;6.466;2022-12-19T16:04:25;12.73;;;4.90;;
63114;SDS011;49208;50.874;6.466;2022-12-19T16:06:51;12.27;;;6.15;;
63114;SDS011;49208;50.874;6.466;2022-12-19T16:09:21;13.38;;;6.95;;
63114;SDS011;49208;50.874;6.466;2022-12-19T16:11:54;12.07;;;5.72;;
63114;SDS011;49208;50.874;6.466;2022-12-19T16:14:22;11.48;;;5.90;;
63114;SDS011;49208;50.874;6.466;2022-12-19T16:16:50;7.38;;;3.95;;
63114;SDS011;49208;50.874;6.466;2022-12-19T16:19:21;11.30;;;5.15;;
63114;SDS011;49208;50.874;6.466;2022-12-19T16:21:47;9.35;;;4.45;;
63114;SDS011;49208;50.874;6.466;2022-12-19T16:24:12;12.07;;;6.82;;
63114;SDS011;49208;50.874;6.466;2022-12-19T16:26:38;14.93;;;9.07;;
63114;SDS011;49208;50.874;6.466;2022-12-19T16:29:04;15.00;;;8.73;;
63114;SDS011;49208;50.874;6.466;2022-12-19T16:31:37;13.18;;;7.35;;
63114;SDS011;49208;50.874;6.466;2022-12-19T16:34:11;11.18;;;6.28;;
63114;SDS011;49208;50.874;6.466;2022-12-19T16:36:40;10.85;;;6.35;;
63114;SDS011;49208;50.874;6.466;2022-12-19T16:39:06;11.85;;;6.63;;
63114;SDS011;49208;50.874;6.466;2022-12-19T16:41:32;9.07;;;5.47;;
63114;SDS011;49208;50.874;6.466;2022-12-19T16:43:57;10.15;;;6.50;;
63114;SDS011;49208;50.874;6.466;2022-12-19T16:46:23;15.40;;;6.72;;
63114;SDS011;49208;50.874;6.466;2022-12-19T16:48:54;12.10;;;5.18;;
63114;SDS011;49208;50.874;6.466;2022-12-19T16:51:21;9.00;;;5.22;;
63114;SDS011;49208;50.874;6.466;2022-12-19T16:53:49;7.20;;;3.65;;
63114;SDS011;49208;50.874;6.466;2022-12-19T16:56:19;7.07;;;3.00;;
63114;SDS011;49208;50.874;6.466;2022-12-19T16:58:48;6.70;;;2.92;;
63114;SDS011;49208;50.874;6.466;2022-12-19T17:01:14;6.15;;;2.92;;
63114;SDS011;49208;50.874;6.466;2022-12-19T17:03:40;6.10;;;2.65;;
63114;SDS011;49208;50.874;6.466;2022-12-19T17:06:09;5.35;;;2.25;;
63114;SDS011;49208;50.874;6.466;2022-12-19T17:08:36;7.30;;;3.05;;
63114;SDS011;49208;50.874;6.466;2022-12-19T17:11:02;5.28;;;2.75;;
63114;SDS011;49208;50.874;6.466;2022-12-19T17:13:27;6.35;;;2.97;;
63114;SDS011;49208;50.874;6.466;2022-12-19T17:15:53;7.38;;;2.60;;
63114;SDS011;49208;50.874;6.466;2022-12-19T17:18:23;6.53;;;2.67;;
63114;SDS011;49208;50.874;6.466;2022-12-19T17:20:52;6.22;;;2.50;;
63114;SDS011;49208;50.874;6.466;2022-12-19T17:23:19;4.55;;;2.20;;
63114;SDS011;49208;50.874;6.466;2022-12-19T17:25:46;8.05;;;2.75;;
63114;SDS011;49208;50.874;6.466;2022-12-19T17:28:12;5.10;;;2.72;;
63114;SDS011;49208;50.874;6.466;2022-12-19T17:30:38;6.63;;;2.75;;
63114;SDS011;49208;50.874;6.466;2022-12-19T17:33:05;6.07;;;2.83;;
63114;SDS011;49208;50.874;6.466;2022-12-19T17:35:33;5.43;;;2.40;;
63114;SDS011;49208;50.874;6.466;2022-12-19T17:37:59;5.55;;;2.47;;
63114;SDS011;49208;50.874;6.466;2022-12-19T17:40:29;7.38;;;3.03;;
63114;SDS011;49208;50.874;6.466;2022-12-19T17:42:57;7.07;;;3.30;;
63114;SDS011;49208;50.874;6.466;2022-12-19T17:45:24;6.72;;;3.10;;
63114;SDS011;49208;50.874;6.466;2022-12-19T17:47:51;7.47;;;3.13;;
63114;SDS011;49208;50.874;6.466;2022-12-19T17:52:45;7.55;;;3.10;;
63114;SDS011;49208;50.874;6.466;2022-12-19T17:55:15;7.38;;;2.90;;
63114;SDS011;49208;50.874;6.466;2022-12-19T17:57:43;5.90;;;3.30;;
63114;SDS011;49208;50.874;6.466;2022-12-19T18:00:09;5.15;;;2.92;;
63114;SDS011;49208;50.874;6.466;2022-12-19T18:02:35;9.73;;;3.17;;
63114;SDS011;49208;50.874;6.466;2022-12-19T18:05:01;5.78;;;3.17;;
63114;SDS011;49208;50.874;6.466;2022-12-19T18:07:27;6.90;;;2.90;;
63114;SDS011;49208;50.874;6.466;2022-12-19T18:09:52;6.95;;;3.13;;
63114;SDS011;49208;50.874;6.466;2022-12-19T18:12:18;7.25;;;2.63;;
63114;SDS011;49208;50.874;6.466;2022-12-19T18:14:43;7.63;;;4.47;;
63114;SDS011;49208;50.874;6.466;2022-12-19T18:17:12;7.60;;;3.95;;
63114;SDS011;49208;50.874;6.466;2022-12-19T18:19:44;9.88;;;4.40;;
63114;SDS011;49208;50.874;6.466;2022-12-19T18:22:13;9.57;;;4.93;;
63114;SDS011;49208;50.874;6.466;2022-12-19T18:24:38;10.68;;;4.93;;
63114;SDS011;49208;50.874;6.466;2022-12-19T18:27:04;7.28;;;3.67;;
63114;SDS011;49208;50.874;6.466;2022-12-19T18:29:30;6.47;;;3.50;;
63114;SDS011;49208;50.874;6.466;2022-12-19T18:31:55;6.47;;;3.03;;
63114;SDS011;49208;50.874;6.466;2022-12-19T18:34:23;9.13;;;3.70;;
63114;SDS011;49208;50.874;6.466;2022-12-19T18:36:50;7.68;;;3.13;;
63114;SDS011;49208;50.874;6.466;2022-12-19T18:39:23;10.73;;;3.45;;
63114;SDS011;49208;50.874;6.466;2022-12-19T18:41:50;6.90;;;3.70;;
63114;SDS011;49208;50.874;6.466;2022-12-19T18:44:16;5.15;;;2.92;;
63114;SDS011;49208;50.874;6.466;2022-12-19T18:46:42;6.78;;;2.75;;
63114;SDS011;49208;50.874;6.466;2022-12-19T18:49:11;6.75;;;2.90;;
